createdAt,value
2022-08-24T00:00:01.353Z,22.17
2022-08-24T00:02:28.717Z,22.13
2022-08-24T00:04:55.630Z,22.10
2022-08-24T00:07:27.372Z,22.05
2022-08-24T00:09:54.670Z,22.01
2022-08-24T00:12:21.508Z,21.97
2022-08-24T00:14:49.545Z,21.93
2022-08-24T00:17:17.183Z,21.89
2022-08-24T00:19:44.256Z,21.85
2022-08-24T00:22:11.018Z,21.81
2022-08-24T00:24:37.794Z,21.77
2022-08-24T00:27:06.543Z,21.73
2022-08-24T00:29:33.695Z,21.68
2022-08-24T00:32:00.639Z,21.64
2022-08-24T00:34:27.897Z,21.61
2022-08-24T00:36:54.706Z,21.58
2022-08-24T00:39:21.628Z,21.54
2022-08-24T00:41:49.286Z,21.51
2022-08-24T00:44:16.913Z,21.48
2022-08-24T00:46:56.998Z,21.44
2022-08-24T00:49:29.830Z,21.41
2022-08-24T00:52:04.743Z,21.36
2022-08-24T00:54:33.818Z,21.34
2022-08-24T00:57:02.743Z,21.31
2022-08-24T00:59:32.915Z,21.27
2022-08-24T01:02:01.260Z,21.25
2022-08-24T01:04:46.027Z,21.21
2022-08-24T01:07:13.017Z,21.17
2022-08-24T01:09:40.423Z,21.15
2022-08-24T01:12:07.381Z,21.13
2022-08-24T01:14:34.800Z,21.09
2022-08-24T01:17:20.202Z,21.08
2022-08-24T01:19:49.178Z,21.04
2022-08-24T01:22:34.679Z,21.01
2022-08-24T01:25:01.691Z,20.98
2022-08-24T01:27:28.519Z,20.96
2022-08-24T01:29:55.943Z,20.93
2022-08-24T01:32:23.716Z,20.90
2022-08-24T01:34:50.506Z,20.87
2022-08-24T01:37:17.249Z,20.83
2022-08-24T01:39:44.969Z,20.79
2022-08-24T01:42:12.149Z,20.77
2022-08-24T01:44:42.300Z,20.74
2022-08-24T01:47:10.421Z,20.72
2022-08-24T01:49:43.736Z,20.70
2022-08-24T01:52:12.818Z,20.67
2022-08-24T01:54:43.579Z,20.65
2022-08-24T01:57:10.714Z,20.62
2022-08-24T01:59:42.053Z,20.60
2022-08-24T02:02:16.828Z,20.56
2022-08-24T02:04:44.369Z,20.53
2022-08-24T02:07:12.498Z,20.50
2022-08-24T02:09:39.353Z,20.46
2022-08-24T02:12:06.895Z,20.44
2022-08-24T02:14:35.072Z,20.42
2022-08-24T02:17:04.541Z,20.39
2022-08-24T02:19:31.654Z,20.37
2022-08-24T02:22:00.556Z,20.35
2022-08-24T02:24:28.218Z,20.32
2022-08-24T02:26:55.758Z,20.31
2022-08-24T02:29:22.475Z,20.29
2022-08-24T02:31:49.851Z,20.28
2022-08-24T02:34:16.960Z,20.26
2022-08-24T02:36:43.773Z,20.25
2022-08-24T02:39:10.587Z,20.24
2022-08-24T02:41:37.829Z,20.22
2022-08-24T02:44:05.087Z,20.20
2022-08-24T02:46:32.765Z,20.18
2022-08-24T02:49:11.155Z,20.16
2022-08-24T02:51:44.127Z,20.13
2022-08-24T02:54:17.665Z,20.10
2022-08-24T02:56:45.310Z,20.08
2022-08-24T02:59:12.414Z,20.06
2022-08-24T03:01:39.611Z,20.03
2022-08-24T03:04:06.416Z,20.01
2022-08-24T03:06:33.643Z,19.99
2022-08-24T03:09:00.635Z,19.97
2022-08-24T03:11:28.425Z,19.95
2022-08-24T03:13:57.533Z,19.93
2022-08-24T03:16:24.683Z,19.91
2022-08-24T03:18:51.831Z,19.89
2022-08-24T03:21:18.805Z,19.87
2022-08-24T03:23:46.944Z,19.85
2022-08-24T03:26:13.726Z,19.83
2022-08-24T03:28:40.791Z,19.81
2022-08-24T03:31:07.771Z,19.79
2022-08-24T03:33:34.535Z,19.77
2022-08-24T03:36:01.385Z,19.77
2022-08-24T03:38:28.495Z,19.76
2022-08-24T03:40:55.700Z,19.77
2022-08-24T03:43:41.396Z,19.77
2022-08-24T03:46:08.935Z,19.77
2022-08-24T03:48:36.734Z,19.79
2022-08-24T03:51:03.579Z,19.81
2022-08-24T03:53:31.550Z,19.83
2022-08-24T03:55:58.880Z,19.85
2022-08-24T03:58:28.470Z,19.87
2022-08-24T04:00:56.029Z,19.89
2022-08-24T04:03:23.552Z,19.93
2022-08-24T04:05:54.090Z,19.95
2022-08-24T04:08:21.733Z,19.98
2022-08-24T04:10:48.662Z,20.01
2022-08-24T04:13:17.395Z,20.05
2022-08-24T04:15:44.260Z,20.09
2022-08-24T04:18:11.191Z,20.14
2022-08-24T04:20:41.925Z,20.18
2022-08-24T04:23:10.034Z,20.23
2022-08-24T04:25:44.350Z,20.28
2022-08-24T04:28:11.727Z,20.34
2022-08-24T04:30:42.769Z,20.41
2022-08-24T04:33:12.023Z,20.50
2022-08-24T04:35:40.062Z,20.61
2022-08-24T04:38:07.607Z,20.73
2022-08-24T04:40:34.618Z,20.87
2022-08-24T04:43:03.410Z,21.01
2022-08-24T04:45:31.246Z,21.15
2022-08-24T04:47:58.098Z,21.28
2022-08-24T04:50:26.050Z,21.40
2022-08-24T04:52:52.839Z,21.52
2022-08-24T04:55:19.820Z,21.66
2022-08-24T04:57:46.602Z,21.84
2022-08-24T05:00:13.730Z,22.03
2022-08-24T05:02:45.076Z,22.20
2022-08-24T05:05:12.767Z,22.36
2022-08-24T05:07:39.524Z,22.50
2022-08-24T05:10:07.378Z,22.62
2022-08-24T05:12:35.757Z,22.75
2022-08-24T05:15:04.160Z,22.86
2022-08-24T05:17:34.351Z,22.98
2022-08-24T05:20:01.247Z,23.05
2022-08-24T05:22:29.370Z,23.13
2022-08-24T05:24:58.111Z,23.24
2022-08-24T05:27:25.138Z,23.34
2022-08-24T05:29:55.477Z,23.42
2022-08-24T05:32:22.313Z,23.52
2022-08-24T05:34:49.506Z,23.63
2022-08-24T05:37:16.354Z,23.74
2022-08-24T05:40:19.231Z,23.80
2022-08-24T05:43:07.539Z,23.87
2022-08-24T05:45:34.339Z,23.96
2022-08-24T05:48:01.276Z,24.07
2022-08-24T05:50:55.017Z,24.17
2022-08-24T05:53:22.462Z,24.21
2022-08-24T05:55:49.788Z,24.15
2022-08-24T05:58:23.187Z,24.10
2022-08-24T06:00:59.310Z,24.07
2022-08-24T06:03:26.906Z,24.05
2022-08-24T06:05:55.009Z,24.01
2022-08-24T06:08:22.092Z,23.94
2022-08-24T06:10:49.832Z,23.91
2022-08-24T06:13:16.782Z,23.84
2022-08-24T06:15:50.965Z,23.82
2022-08-24T06:18:26.697Z,23.82
2022-08-24T06:20:57.260Z,23.83
2022-08-24T06:23:24.711Z,23.83
2022-08-24T06:26:20.194Z,23.83
2022-08-24T06:28:49.342Z,23.81
2022-08-24T06:31:16.691Z,23.80
2022-08-24T06:33:43.576Z,23.78
2022-08-24T06:36:10.288Z,23.78
2022-08-24T06:38:37.603Z,23.78
2022-08-24T06:41:05.131Z,23.80
2022-08-24T06:43:34.583Z,23.83
2022-08-24T06:46:09.612Z,23.84
2022-08-24T06:48:40.170Z,23.88
2022-08-24T06:51:11.906Z,23.89
2022-08-24T06:53:39.059Z,23.88
2022-08-24T06:56:06.628Z,23.89
2022-08-24T06:58:33.752Z,23.92
2022-08-24T07:01:24.831Z,23.97
2022-08-24T07:03:51.885Z,24.00
2022-08-24T07:06:38.801Z,23.97
2022-08-24T07:09:05.661Z,23.97
2022-08-24T07:11:34.993Z,23.99
2022-08-24T07:14:02.219Z,24.00
2022-08-24T07:16:29.072Z,24.05
2022-08-24T07:18:59.569Z,24.07
2022-08-24T07:21:26.837Z,24.10
2022-08-24T07:23:57.854Z,24.13
2022-08-24T07:26:25.677Z,24.16
2022-08-24T07:29:07.079Z,24.20
2022-08-24T07:31:39.801Z,24.28
2022-08-24T07:34:11.382Z,24.36
2022-08-24T07:36:43.543Z,24.45
2022-08-24T07:39:11.401Z,24.53
2022-08-24T07:41:56.840Z,24.58
2022-08-24T07:44:26.906Z,24.63
2022-08-24T07:46:54.940Z,24.69
2022-08-24T07:49:36.185Z,24.77
2022-08-24T07:52:04.450Z,24.86
2022-08-24T07:54:31.200Z,24.93
2022-08-24T07:56:59.574Z,25.00
2022-08-24T07:59:26.717Z,25.08
2022-08-24T08:01:53.564Z,25.17
2022-08-24T08:04:22.098Z,25.25
2022-08-24T08:06:49.324Z,25.32
2022-08-24T08:09:16.194Z,25.40
2022-08-24T08:11:43.134Z,25.47
2022-08-24T08:14:09.900Z,25.54
2022-08-24T08:16:38.384Z,25.62
2022-08-24T08:19:12.503Z,25.71
2022-08-24T08:22:04.860Z,25.81
2022-08-24T08:24:33.801Z,25.92
2022-08-24T08:27:00.843Z,26.00
2022-08-24T08:29:34.158Z,26.08
2022-08-24T08:32:01.246Z,26.16
2022-08-24T08:34:29.308Z,26.24
2022-08-24T08:36:56.373Z,26.31
2022-08-24T08:39:23.499Z,26.37
2022-08-24T08:42:00.516Z,26.42
2022-08-24T08:47:54.322Z,26.61
2022-08-24T08:50:30.735Z,26.68
2022-08-24T08:53:45.412Z,26.75
2022-08-24T08:56:38.191Z,26.80
2022-08-24T08:59:23.001Z,26.87
2022-08-24T09:02:07.528Z,26.96
2022-08-24T09:04:56.552Z,27.03
2022-08-24T09:07:47.105Z,27.08
2022-08-24T09:10:41.227Z,27.14
2022-08-24T09:13:17.727Z,27.23
2022-08-24T09:15:57.575Z,27.31
2022-08-24T09:18:41.455Z,27.39
2022-08-24T09:21:46.580Z,27.48
2022-08-24T09:24:33.150Z,27.60
2022-08-24T09:27:08.009Z,27.70
2022-08-24T09:30:03.755Z,27.78
2022-08-24T09:32:33.511Z,27.90
2022-08-24T09:35:10.618Z,27.97
2022-08-24T09:37:59.895Z,28.05
2022-08-24T09:40:37.230Z,28.09
2022-08-24T09:43:13.225Z,28.17
2022-08-24T09:46:04.994Z,28.25
2022-08-24T09:48:53.100Z,28.32
2022-08-24T09:51:44.194Z,28.37
2022-08-24T09:54:49.307Z,28.42
2022-08-24T09:57:59.325Z,28.46
2022-08-24T10:00:27.581Z,28.51
2022-08-24T10:03:03.110Z,28.55
2022-08-24T10:05:50.218Z,28.59
2022-08-24T10:08:56.132Z,28.65
2022-08-24T10:11:33.562Z,28.70
2022-08-24T10:14:25.860Z,28.75
2022-08-24T10:17:14.465Z,28.82
2022-08-24T10:20:01.477Z,28.86
2022-08-24T10:22:47.066Z,28.90
2022-08-24T10:25:22.690Z,28.94
2022-08-24T10:28:01.291Z,28.96
2022-08-24T10:30:56.622Z,28.99
2022-08-24T10:33:56.631Z,29.03
2022-08-24T10:36:44.727Z,29.07
2022-08-24T10:39:36.395Z,29.11
2022-08-24T10:42:37.546Z,29.14
2022-08-24T10:45:15.883Z,29.18
2022-08-24T10:47:54.360Z,29.21
2022-08-24T10:50:56.585Z,29.25
2022-08-24T10:53:30.871Z,29.28
2022-08-24T10:56:11.086Z,29.33
2022-08-24T10:58:37.814Z,29.36
2022-08-24T11:01:24.531Z,29.41
2022-08-24T11:03:57.425Z,29.45
2022-08-24T11:06:25.369Z,29.48
2022-08-24T11:09:01.105Z,29.53
2022-08-24T11:11:40.602Z,29.61
2022-08-24T11:14:16.757Z,29.65
2022-08-24T11:16:45.982Z,29.70
2022-08-24T11:19:29.735Z,29.72
2022-08-24T11:21:58.263Z,29.74
2022-08-24T11:24:26.447Z,29.76
2022-08-24T11:27:01.060Z,29.81
2022-08-24T11:29:51.288Z,29.85
2022-08-24T11:32:46.014Z,29.87
2022-08-24T11:35:36.342Z,29.88
2022-08-24T11:38:06.192Z,29.91
2022-08-24T11:40:36.366Z,29.94
2022-08-24T11:43:12.606Z,29.97
2022-08-24T11:46:14.121Z,30.00
2022-08-24T11:48:59.768Z,30.03
2022-08-24T11:51:32.495Z,30.06
2022-08-24T11:54:19.405Z,30.07
2022-08-24T11:56:52.341Z,30.07
2022-08-24T11:59:37.832Z,30.07
2022-08-24T12:02:08.293Z,30.09
2022-08-24T12:04:49.566Z,30.10
2022-08-24T12:07:34.601Z,30.11
2022-08-24T12:10:28.601Z,30.14
2022-08-24T12:13:04.765Z,30.17
2022-08-24T12:15:52.131Z,30.19
2022-08-24T12:18:32.906Z,30.22
2022-08-24T12:21:00.091Z,30.23
2022-08-24T12:23:29.650Z,30.25
2022-08-24T12:26:02.522Z,30.30
2022-08-24T12:28:33.333Z,30.34
2022-08-24T12:31:07.939Z,30.40
2022-08-24T12:33:37.507Z,30.46
2022-08-24T12:36:11.296Z,30.53
2022-08-24T12:38:45.085Z,30.59
2022-08-24T12:41:28.025Z,30.60
2022-08-24T12:44:11.563Z,30.59
2022-08-24T12:46:38.882Z,30.55
2022-08-24T12:49:18.145Z,30.52
2022-08-24T12:52:03.886Z,30.50
2022-08-24T12:54:52.468Z,30.49
2022-08-24T12:58:03.735Z,30.53
2022-08-24T13:00:33.485Z,30.57
2022-08-24T13:03:03.981Z,30.57
2022-08-24T13:05:45.684Z,30.57
2022-08-24T13:08:23.932Z,30.54
2022-08-24T13:11:01.928Z,30.52
2022-08-24T13:13:48.500Z,30.50
2022-08-24T13:16:49.249Z,30.49
2022-08-24T13:19:31.715Z,30.50
2022-08-24T13:22:16.002Z,30.50
2022-08-24T13:25:19.328Z,30.47
2022-08-24T13:27:48.083Z,30.47
2022-08-24T13:30:26.522Z,30.50
2022-08-24T13:33:06.057Z,30.52
2022-08-24T13:35:38.950Z,30.53
2022-08-24T13:38:24.515Z,30.54
2022-08-24T13:41:01.711Z,30.55
2022-08-24T13:43:52.009Z,30.56
2022-08-24T13:46:56.575Z,30.58
2022-08-24T13:49:39.968Z,30.57
2022-08-24T13:52:38.948Z,30.56
2022-08-24T13:55:21.134Z,30.54
2022-08-24T13:58:18.314Z,30.53
2022-08-24T14:01:11.983Z,30.53
2022-08-24T14:03:57.997Z,30.51
2022-08-24T14:06:30.969Z,30.49
2022-08-24T14:09:37.962Z,30.48
2022-08-24T14:12:30.708Z,30.47
2022-08-24T14:15:09.401Z,30.45
2022-08-24T14:17:55.940Z,30.42
2022-08-24T14:21:01.283Z,30.42
2022-08-24T14:23:45.307Z,30.41
2022-08-24T14:26:33.662Z,30.40
2022-08-24T14:29:16.361Z,30.38
2022-08-24T14:32:00.095Z,30.36
2022-08-24T14:34:48.875Z,30.33
2022-08-24T14:37:19.034Z,30.30
2022-08-24T14:40:16.276Z,30.27
2022-08-24T14:42:56.969Z,30.23
2022-08-24T14:45:34.623Z,30.18
2022-08-24T14:48:08.397Z,30.14
2022-08-24T14:50:45.939Z,30.10
2022-08-24T14:53:25.211Z,30.06
2022-08-24T14:56:31.817Z,30.02
2022-08-24T14:59:16.959Z,29.98
2022-08-24T15:01:46.008Z,29.94
2022-08-24T15:04:37.516Z,29.92
2022-08-24T15:07:35.378Z,29.87
2022-08-24T15:10:02.958Z,29.84
2022-08-24T15:12:36.465Z,29.81
2022-08-24T15:15:12.588Z,29.76
2022-08-24T15:17:45.237Z,29.72
2022-08-24T15:20:20.651Z,29.70
2022-08-24T15:23:04.415Z,29.67
2022-08-24T15:25:41.093Z,29.64
2022-08-24T15:28:12.294Z,29.60
2022-08-24T15:30:40.450Z,29.57
2022-08-24T15:33:19.104Z,29.52
2022-08-24T15:35:48.228Z,29.48
2022-08-24T15:38:21.174Z,29.45
2022-08-24T15:40:50.143Z,29.41
2022-08-24T15:43:17.627Z,29.39
2022-08-24T15:45:50.247Z,29.35
2022-08-24T15:48:18.713Z,29.31
2022-08-24T15:50:47.131Z,29.27
2022-08-24T15:53:40.057Z,29.22
2022-08-24T15:56:30.147Z,29.16
2022-08-24T15:59:12.449Z,29.10
2022-08-24T16:01:58.280Z,29.05
2022-08-24T16:04:48.979Z,28.99
2022-08-24T16:07:27.729Z,28.93
2022-08-24T16:10:04.025Z,28.86
2022-08-24T16:12:32.679Z,28.80
2022-08-24T16:15:19.945Z,28.74
2022-08-24T16:17:51.536Z,28.67
2022-08-24T16:20:24.799Z,28.61
2022-08-24T16:23:00.572Z,28.56
2022-08-24T16:25:31.649Z,28.49
2022-08-24T16:28:05.119Z,28.44
2022-08-24T16:30:44.037Z,28.40
2022-08-24T16:33:32.284Z,28.36
2022-08-24T16:36:00.447Z,28.32
2022-08-24T16:38:31.705Z,28.29
2022-08-24T16:41:06.319Z,28.24
2022-08-24T16:43:36.139Z,28.19
2022-08-24T16:46:04.207Z,28.13
2022-08-24T16:48:32.948Z,28.09
2022-08-24T16:51:03.441Z,28.04
2022-08-24T16:53:30.826Z,28.00
2022-08-24T16:55:58.408Z,27.95
2022-08-24T16:58:30.192Z,27.88
2022-08-24T17:00:57.670Z,27.82
2022-08-24T17:03:26.458Z,27.73
2022-08-24T17:05:55.005Z,27.67
2022-08-24T17:08:22.174Z,27.59
2022-08-24T17:10:49.307Z,27.51
2022-08-24T17:13:39.338Z,27.44
2022-08-24T17:16:04.965Z,27.36
2022-08-24T17:18:34.544Z,27.29
2022-08-24T17:21:02.330Z,27.23
2022-08-24T17:23:30.682Z,27.16
2022-08-24T17:25:58.242Z,27.12
2022-08-24T17:28:27.645Z,27.07
2022-08-24T17:30:55.081Z,27.01
2022-08-24T17:33:23.112Z,26.94
2022-08-24T17:35:51.922Z,26.88
2022-08-24T17:38:18.696Z,26.83
2022-08-24T17:40:45.417Z,26.78
2022-08-24T17:43:12.326Z,26.73
2022-08-24T17:45:39.871Z,26.68
2022-08-24T17:48:06.687Z,26.63
2022-08-24T17:50:35.066Z,26.59
2022-08-24T17:53:01.993Z,26.54
2022-08-24T17:55:28.891Z,26.51
2022-08-24T17:57:55.690Z,26.47
2022-08-24T18:00:22.500Z,26.43
2022-08-24T18:02:49.807Z,26.40
2022-08-24T18:05:17.113Z,26.37
2022-08-24T18:07:53.467Z,26.32
2022-08-24T18:10:23.959Z,26.28
2022-08-24T18:12:50.808Z,26.24
2022-08-24T18:15:17.731Z,26.21
2022-08-24T18:17:48.184Z,26.20
2022-08-24T18:20:15.572Z,26.17
2022-08-24T18:22:47.096Z,26.14
2022-08-24T18:25:18.155Z,26.10
2022-08-24T18:27:45.845Z,26.08
2022-08-24T18:30:41.424Z,26.05
2022-08-24T18:33:08.821Z,26.00
2022-08-24T18:35:36.266Z,25.95
2022-08-24T18:38:03.066Z,25.91
2022-08-24T18:40:33.369Z,25.87
2022-08-24T18:43:00.511Z,25.84
2022-08-24T18:45:27.398Z,25.81
2022-08-24T18:47:56.183Z,25.75
2022-08-24T18:50:23.982Z,25.69
2022-08-24T18:52:50.813Z,25.65
2022-08-24T18:55:18.255Z,25.61
2022-08-24T18:57:45.378Z,25.56
2022-08-24T19:00:13.076Z,25.52
2022-08-24T19:02:40.756Z,25.48
2022-08-24T19:05:08.146Z,25.43
2022-08-24T19:07:39.953Z,25.39
2022-08-24T19:10:07.709Z,25.34
2022-08-24T19:12:39.329Z,25.29
2022-08-24T19:15:29.150Z,25.24
2022-08-24T19:17:58.209Z,25.20
2022-08-24T19:20:25.063Z,25.16
2022-08-24T19:22:53.309Z,25.13
2022-08-24T19:25:24.439Z,25.09
2022-08-24T19:27:53.802Z,25.05
2022-08-24T19:30:21.124Z,25.01
2022-08-24T19:32:48.046Z,24.97
2022-08-24T19:35:15.837Z,24.92
2022-08-24T19:37:43.309Z,24.88
2022-08-24T19:40:10.545Z,24.83
2022-08-24T19:42:37.590Z,24.78
2022-08-24T19:45:25.689Z,24.75
2022-08-24T19:47:52.493Z,24.71
2022-08-24T19:50:21.241Z,24.67
2022-08-24T19:52:48.306Z,24.63
2022-08-24T19:55:15.262Z,24.58
2022-08-24T19:57:48.815Z,24.52
2022-08-24T20:00:18.749Z,24.47
2022-08-24T20:02:49.637Z,24.41
2022-08-24T20:05:17.122Z,24.36
2022-08-24T20:07:44.560Z,24.31
2022-08-24T20:10:12.930Z,24.26
2022-08-24T20:12:40.641Z,24.21
2022-08-24T20:15:08.066Z,24.17
2022-08-24T20:17:36.034Z,24.14
2022-08-24T20:20:04.699Z,24.11
2022-08-24T20:22:31.602Z,24.07
2022-08-24T20:24:58.365Z,24.03
2022-08-24T20:27:26.084Z,23.99
2022-08-24T20:29:52.992Z,23.93
2022-08-24T20:32:20.182Z,23.89
2022-08-24T20:34:47.028Z,23.85
2022-08-24T20:37:22.817Z,23.80
2022-08-24T20:39:49.725Z,23.74
2022-08-24T20:42:21.014Z,23.67
2022-08-24T20:44:48.412Z,23.59
2022-08-24T20:47:15.146Z,23.51
2022-08-24T20:49:41.950Z,23.43
2022-08-24T20:52:08.819Z,23.35
2022-08-24T20:54:39.484Z,23.27
2022-08-24T20:57:12.124Z,23.20
2022-08-24T20:59:38.871Z,23.13
2022-08-24T21:05:01.340Z,23.01
2022-08-24T21:07:28.154Z,22.93
2022-08-24T21:09:54.912Z,22.88
2022-08-24T21:12:21.662Z,22.83
2022-08-24T21:14:48.389Z,22.77
2022-08-24T21:17:18.501Z,22.70
2022-08-24T21:19:45.296Z,22.65
2022-08-24T21:22:12.134Z,22.60
2022-08-24T21:24:40.564Z,22.55
2022-08-24T21:27:07.310Z,22.51
2022-08-24T21:29:34.068Z,22.45
2022-08-24T21:32:19.432Z,22.39
2022-08-24T21:34:46.251Z,22.32
2022-08-24T21:37:15.322Z,22.26
2022-08-24T21:39:42.414Z,22.21
2022-08-24T21:42:09.662Z,22.16
2022-08-24T21:44:36.615Z,22.10
2022-08-24T21:47:04.868Z,22.06
2022-08-24T21:49:31.813Z,22.01
2022-08-24T21:51:58.551Z,21.98
2022-08-24T21:54:25.514Z,21.94
2022-08-24T21:56:52.441Z,21.89
2022-08-24T21:59:19.341Z,21.85
2022-08-24T22:01:46.274Z,21.81
2022-08-24T22:04:13.457Z,21.77
2022-08-24T22:06:40.210Z,21.71
2022-08-24T22:09:07.036Z,21.65
2022-08-24T22:11:34.056Z,21.61
2022-08-24T22:14:01.614Z,21.58
2022-08-24T22:16:28.498Z,21.55
2022-08-24T22:18:55.400Z,21.52
2022-08-24T22:21:23.710Z,21.47
2022-08-24T22:23:50.471Z,21.44
2022-08-24T22:26:17.284Z,21.42
2022-08-24T22:28:44.039Z,21.39
2022-08-24T22:31:22.584Z,21.35
2022-08-24T22:33:49.606Z,21.31
2022-08-24T22:36:16.770Z,21.24
2022-08-24T22:38:43.888Z,21.17
2022-08-24T22:41:10.685Z,21.10
2022-08-24T22:43:55.725Z,21.02
2022-08-24T22:46:22.867Z,20.98
2022-08-24T22:48:49.782Z,20.96
2022-08-24T22:51:16.592Z,20.95
2022-08-24T22:53:43.408Z,20.94
2022-08-24T22:56:17.951Z,20.90
2022-08-24T22:58:44.886Z,20.89
2022-08-24T23:01:27.421Z,20.87
2022-08-24T23:03:55.415Z,20.86
2022-08-24T23:06:22.261Z,20.86
2022-08-24T23:08:49.022Z,20.83
2022-08-24T23:11:15.995Z,20.81
2022-08-24T23:13:42.782Z,20.78
2022-08-24T23:16:10.781Z,20.77
2022-08-24T23:18:56.190Z,20.75
2022-08-24T23:21:23.080Z,20.72
2022-08-24T23:23:50.408Z,20.69
2022-08-24T23:26:18.313Z,20.68
2022-08-24T23:28:46.256Z,20.64
2022-08-24T23:31:18.465Z,20.62
2022-08-24T23:33:45.313Z,20.58
2022-08-24T23:36:16.976Z,20.56
2022-08-24T23:38:43.871Z,20.55
2022-08-24T23:41:14.599Z,20.53
2022-08-24T23:43:41.493Z,20.52
2022-08-24T23:46:09.242Z,20.50
2022-08-24T23:48:38.965Z,20.48
2022-08-24T23:51:14.017Z,20.45
2022-08-24T23:53:46.816Z,20.42
2022-08-24T23:56:16.686Z,20.39
2022-08-24T23:58:43.692Z,20.36
